TAM3853 SBTE-SBBR
Flight info
| Callsign | TAM3853 |
|---|---|
| Flight time | 1h 49m |
| Altitude | 36000 |
| Route | GUEST DCT KADAG DCT TOLAT |
| Aircraft | A20N/M-SDE2E3FGHIRWXY/LB1 |
Departure
| Time | 2026-04-29 19:39 |
|---|---|
| Airport | Senador Petrônio Portela Airport (SBTE) |
Arrival
| Time | 2026-04-29 21:28 |
|---|---|
| Airport | Presidente Juscelino Kubitschek International Airport (SBBR) |
| Time | Latitude | Longitude | Altitude | Speed | Heading |
|---|---|---|---|---|---|
| 2026-04-29 19:10 | -5.06401 | -42.82170 | 224 ft | 0 kts | 88° |
| 2026-04-29 19:28 | -5.06401 | -42.82171 | 224 ft | 2 kts | 88° |
| 2026-04-29 19:28 | -5.06402 | -42.82187 | 225 ft | 2 kts | 88° |
| 2026-04-29 19:28 | -5.06402 | -42.82204 | 224 ft | 2 kts | 88° |
| 2026-04-29 19:28 | -5.06403 | -42.82220 | 226 ft | 2 kts | 94° |
| 2026-04-29 19:29 | -5.06407 | -42.82229 | 224 ft | 0 kts | 356° |
| 2026-04-29 19:32 | -5.06406 | -42.82229 | 224 ft | 0 kts | 358° |
| 2026-04-29 19:33 | -5.06405 | -42.82229 | 224 ft | 0 kts | 360° |
| 2026-04-29 19:33 | -5.06404 | -42.82229 | 224 ft | 0 kts | 2° |
| 2026-04-29 19:34 | -5.06341 | -42.82253 | 223 ft | 6 kts | 287° |
| 2026-04-29 19:34 | -5.06344 | -42.82261 | 223 ft | 1 kts | 245° |
| 2026-04-29 19:34 | -5.06354 | -42.82284 | 224 ft | 7 kts | 245° |
| 2026-04-29 19:34 | -5.06326 | -42.82338 | 224 ft | 12 kts | 335° |
| 2026-04-29 19:35 | -5.06208 | -42.82352 | 222 ft | 22 kts | 355° |
| 2026-04-29 19:35 | -5.06048 | -42.82368 | 219 ft | 20 kts | 354° |
| 2026-04-29 19:35 | -5.05893 | -42.82385 | 218 ft | 24 kts | 354° |
| 2026-04-29 19:35 | -5.05737 | -42.82402 | 219 ft | 23 kts | 354° |
| 2026-04-29 19:36 | -5.05567 | -42.82420 | 216 ft | 25 kts | 354° |
| 2026-04-29 19:36 | -5.05409 | -42.82436 | 219 ft | 20 kts | 354° |
| 2026-04-29 19:36 | -5.05265 | -42.82451 | 211 ft | 15 kts | 354° |
| 2026-04-29 19:36 | -5.05161 | -42.82462 | 217 ft | 16 kts | 354° |
| 2026-04-29 19:37 | -5.05102 | -42.82459 | 212 ft | 8 kts | 17° |
| 2026-04-29 19:37 | -5.05064 | -42.82443 | 208 ft | 9 kts | 13° |
| 2026-04-29 19:37 | -5.05041 | -42.82465 | 212 ft | 3 kts | 212° |
| 2026-04-29 19:37 | -5.05080 | -42.82469 | 210 ft | 0 kts | 174° |
| 2026-04-29 19:38 | -5.05083 | -42.82469 | 209 ft | 5 kts | 174° |
| 2026-04-29 19:38 | -5.05305 | -42.82445 | 210 ft | 63 kts | 173° |
| 2026-04-29 19:38 | -5.05947 | -42.82377 | 218 ft | 121 kts | 174° |
| 2026-04-29 19:38 | -5.06943 | -42.82269 | 387 ft | 150 kts | 172° |
| 2026-04-29 19:39 | -5.07952 | -42.82185 | 965 ft | 145 kts | 174° |
| 2026-04-29 19:39 | -5.08955 | -42.82098 | 1524 ft | 142 kts | 172° |
| 2026-04-29 19:39 | -5.09952 | -42.81998 | 1976 ft | 152 kts | 172° |
| 2026-04-29 19:39 | -5.11108 | -42.81877 | 2262 ft | 182 kts | 172° |
| 2026-04-29 19:40 | -5.12455 | -42.81741 | 2575 ft | 204 kts | 173° |
| 2026-04-29 19:40 | -5.13952 | -42.81648 | 2839 ft | 232 kts | 181° |
| 2026-04-29 19:40 | -5.15587 | -42.82133 | 3190 ft | 258 kts | 211° |
| 2026-04-29 19:40 | -5.17025 | -42.83260 | 3859 ft | 263 kts | 212° |
| 2026-04-29 19:41 | -5.18574 | -42.84216 | 4549 ft | 268 kts | 207° |
| 2026-04-29 19:41 | -5.20211 | -42.85147 | 5245 ft | 272 kts | 205° |
| 2026-04-29 19:41 | -5.21877 | -42.86068 | 5992 ft | 274 kts | 205° |
| 2026-04-29 19:41 | -5.23565 | -42.86991 | 6668 ft | 278 kts | 204° |
| 2026-04-29 19:42 | -5.25276 | -42.87923 | 7323 ft | 282 kts | 205° |
| 2026-04-29 19:42 | -5.26421 | -42.88546 | 7756 ft | 284 kts | 205° |
| 2026-04-29 19:42 | -5.28763 | -42.89819 | 8691 ft | 289 kts | 205° |
| 2026-04-29 19:42 | -5.30546 | -42.90787 | 9376 ft | 293 kts | 205° |
| 2026-04-29 19:43 | -5.32350 | -42.91767 | 10012 ft | 298 kts | 205° |
| 2026-04-29 19:43 | -5.34226 | -42.92784 | 10312 ft | 315 kts | 205° |
| 2026-04-29 19:43 | -5.36215 | -42.93861 | 10548 ft | 333 kts | 205° |
| 2026-04-29 19:43 | -5.38280 | -42.94981 | 10775 ft | 349 kts | 205° |
| 2026-04-29 19:44 | -5.40458 | -42.96166 | 11113 ft | 359 kts | 206° |
| 2026-04-29 19:44 | -5.42679 | -42.97374 | 11587 ft | 365 kts | 206° |
| 2026-04-29 19:44 | -5.44923 | -42.98596 | 12077 ft | 369 kts | 206° |
| 2026-04-29 19:44 | -5.47169 | -42.99819 | 12571 ft | 372 kts | 206° |
| 2026-04-29 19:45 | -5.49461 | -43.01065 | 13081 ft | 376 kts | 206° |
| 2026-04-29 19:45 | -5.51776 | -43.02324 | 13584 ft | 380 kts | 206° |
| 2026-04-29 19:45 | -5.54109 | -43.03593 | 14041 ft | 383 kts | 206° |
| 2026-04-29 19:45 | -5.56464 | -43.04874 | 14502 ft | 387 kts | 206° |
| 2026-04-29 19:46 | -5.58839 | -43.06166 | 14973 ft | 389 kts | 206° |
| 2026-04-29 19:46 | -5.61227 | -43.07464 | 15438 ft | 392 kts | 206° |
| 2026-04-29 19:46 | -5.63637 | -43.08775 | 15885 ft | 395 kts | 206° |
| 2026-04-29 19:46 | -5.66066 | -43.10096 | 16349 ft | 398 kts | 206° |
| 2026-04-29 19:47 | -5.68502 | -43.11457 | 16800 ft | 401 kts | 207° |
| 2026-04-29 19:47 | -5.70899 | -43.12858 | 17237 ft | 404 kts | 208° |
| 2026-04-29 19:47 | -5.73324 | -43.14310 | 17672 ft | 407 kts | 209° |
| 2026-04-29 19:47 | -5.75762 | -43.15782 | 18074 ft | 410 kts | 209° |
| 2026-04-29 19:48 | -5.78216 | -43.17267 | 18417 ft | 413 kts | 209° |
| 2026-04-29 19:48 | -5.79855 | -43.18256 | 18622 ft | 415 kts | 209° |
| 2026-04-29 19:48 | -5.83186 | -43.20260 | 19041 ft | 419 kts | 208° |
| 2026-04-29 19:48 | -5.85703 | -43.21770 | 19354 ft | 422 kts | 208° |
| 2026-04-29 19:49 | -5.88241 | -43.23289 | 19653 ft | 425 kts | 208° |
| 2026-04-29 19:49 | -5.90754 | -43.24792 | 19935 ft | 427 kts | 208° |
| 2026-04-29 19:49 | -5.93352 | -43.26346 | 20215 ft | 430 kts | 208° |
| 2026-04-29 19:49 | -5.95900 | -43.27870 | 20505 ft | 433 kts | 208° |
| 2026-04-29 19:50 | -5.98501 | -43.29426 | 20802 ft | 435 kts | 208° |
| 2026-04-29 19:50 | -6.01115 | -43.30990 | 21099 ft | 438 kts | 208° |
| 2026-04-29 19:50 | -6.03740 | -43.32561 | 21407 ft | 441 kts | 208° |
| 2026-04-29 19:50 | -6.06391 | -43.34148 | 21712 ft | 444 kts | 208° |
| 2026-04-29 19:51 | -6.09028 | -43.35727 | 22011 ft | 447 kts | 208° |
| 2026-04-29 19:51 | -6.11710 | -43.37333 | 22325 ft | 450 kts | 208° |
| 2026-04-29 19:51 | -6.14415 | -43.38952 | 22634 ft | 453 kts | 208° |
| 2026-04-29 19:51 | -6.17134 | -43.40581 | 22936 ft | 456 kts | 208° |
| 2026-04-29 19:52 | -6.19870 | -43.42219 | 23249 ft | 459 kts | 207° |
| 2026-04-29 19:52 | -6.22621 | -43.43868 | 23533 ft | 461 kts | 208° |
| 2026-04-29 19:52 | -6.25360 | -43.45510 | 23823 ft | 463 kts | 208° |
| 2026-04-29 19:52 | -6.28135 | -43.47173 | 24154 ft | 463 kts | 208° |
| 2026-04-29 19:53 | -6.30909 | -43.48836 | 24483 ft | 463 kts | 208° |
| 2026-04-29 19:53 | -6.33645 | -43.50477 | 24828 ft | 463 kts | 208° |
| 2026-04-29 19:53 | -6.36418 | -43.52139 | 25172 ft | 464 kts | 208° |
| 2026-04-29 19:53 | -6.39198 | -43.53806 | 25511 ft | 465 kts | 208° |
| 2026-04-29 19:54 | -6.44776 | -43.57151 | 26203 ft | 467 kts | 208° |
| 2026-04-29 19:54 | -6.47574 | -43.58829 | 26552 ft | 467 kts | 208° |
| 2026-04-29 19:54 | -6.50339 | -43.60488 | 26871 ft | 468 kts | 208° |
| 2026-04-29 19:55 | -6.53117 | -43.62154 | 27195 ft | 469 kts | 208° |
| 2026-04-29 19:55 | -6.55940 | -43.63848 | 27509 ft | 470 kts | 208° |
| 2026-04-29 19:55 | -6.58729 | -43.65522 | 27810 ft | 471 kts | 208° |
| 2026-04-29 19:55 | -6.61558 | -43.67220 | 28111 ft | 472 kts | 208° |
| 2026-04-29 19:56 | -6.64353 | -43.68897 | 28418 ft | 473 kts | 208° |
| 2026-04-29 19:56 | -6.67199 | -43.70606 | 28715 ft | 474 kts | 208° |
| 2026-04-29 19:56 | -6.70041 | -43.72313 | 29001 ft | 475 kts | 208° |
| 2026-04-29 19:56 | -6.72885 | -43.74021 | 29353 ft | 474 kts | 208° |
| 2026-04-29 19:57 | -6.75687 | -43.75704 | 29782 ft | 471 kts | 208° |
| 2026-04-29 19:57 | -6.77556 | -43.76827 | 30048 ft | 470 kts | 208° |
| 2026-04-29 19:57 | -6.81282 | -43.79066 | 30463 ft | 468 kts | 208° |
| 2026-04-29 19:57 | -6.84095 | -43.80756 | 30744 ft | 468 kts | 208° |
| 2026-04-29 19:58 | -6.86894 | -43.82438 | 31033 ft | 467 kts | 208° |
| 2026-04-29 19:58 | -6.89661 | -43.84101 | 31310 ft | 467 kts | 208° |
| 2026-04-29 19:58 | -6.92447 | -43.85775 | 31610 ft | 466 kts | 209° |
| 2026-04-29 19:58 | -6.95240 | -43.87454 | 31890 ft | 465 kts | 209° |
| 2026-04-29 19:59 | -6.97993 | -43.89109 | 32186 ft | 464 kts | 209° |
| 2026-04-29 19:59 | -7.00768 | -43.90778 | 32478 ft | 463 kts | 209° |
| 2026-04-29 19:59 | -7.03542 | -43.92447 | 32760 ft | 462 kts | 209° |
| 2026-04-29 19:59 | -7.06267 | -43.94086 | 33049 ft | 461 kts | 209° |
| 2026-04-29 20:00 | -7.09022 | -43.95743 | 33307 ft | 461 kts | 209° |
| 2026-04-29 20:00 | -7.11764 | -43.97393 | 33573 ft | 460 kts | 209° |
| 2026-04-29 20:00 | -7.14525 | -43.99054 | 33855 ft | 459 kts | 209° |
| 2026-04-29 20:00 | -7.17243 | -44.00690 | 34094 ft | 458 kts | 209° |
| 2026-04-29 20:01 | -7.19980 | -44.02337 | 34330 ft | 457 kts | 209° |
| 2026-04-29 20:01 | -7.22708 | -44.03980 | 34569 ft | 455 kts | 209° |
| 2026-04-29 20:01 | -7.25402 | -44.05602 | 34809 ft | 454 kts | 209° |
| 2026-04-29 20:01 | -7.28120 | -44.07239 | 35056 ft | 452 kts | 209° |
| 2026-04-29 20:02 | -7.30835 | -44.08874 | 35271 ft | 451 kts | 209° |
| 2026-04-29 20:02 | -7.33502 | -44.10481 | 35497 ft | 450 kts | 210° |
| 2026-04-29 20:02 | -7.36194 | -44.12103 | 35720 ft | 449 kts | 210° |
| 2026-04-29 20:02 | -7.37070 | -44.12630 | 35770 ft | 449 kts | 210° |
| 2026-04-29 20:03 | -7.44202 | -44.16928 | 35854 ft | 447 kts | 210° |
| 2026-04-29 20:03 | -7.49559 | -44.20157 | 35856 ft | 447 kts | 210° |
| 2026-04-29 20:04 | -7.54879 | -44.23364 | 35862 ft | 447 kts | 210° |
| 2026-04-29 20:04 | -7.60202 | -44.26575 | 35866 ft | 447 kts | 210° |
| 2026-04-29 20:05 | -7.65523 | -44.29786 | 35864 ft | 447 kts | 210° |
| 2026-04-29 20:05 | -7.70859 | -44.33006 | 35865 ft | 447 kts | 210° |
| 2026-04-29 20:06 | -7.75318 | -44.35698 | 35864 ft | 447 kts | 209° |
| 2026-04-29 20:06 | -7.80653 | -44.38920 | 35864 ft | 448 kts | 210° |
| 2026-04-29 20:07 | -7.85987 | -44.42142 | 35863 ft | 448 kts | 210° |
| 2026-04-29 20:07 | -7.91354 | -44.45385 | 35864 ft | 448 kts | 210° |
| 2026-04-29 20:08 | -7.95775 | -44.48057 | 35867 ft | 448 kts | 210° |
| 2026-04-29 20:08 | -8.02016 | -44.51830 | 35868 ft | 448 kts | 210° |
| 2026-04-29 20:09 | -8.07359 | -44.55061 | 35868 ft | 448 kts | 210° |
| 2026-04-29 20:09 | -8.12718 | -44.58303 | 35867 ft | 448 kts | 210° |
| 2026-04-29 20:10 | -8.18059 | -44.61535 | 35868 ft | 448 kts | 210° |
| 2026-04-29 20:10 | -8.23391 | -44.64763 | 35870 ft | 448 kts | 210° |
| 2026-04-29 20:11 | -8.28739 | -44.68001 | 35869 ft | 448 kts | 210° |
| 2026-04-29 20:11 | -8.34094 | -44.71244 | 35869 ft | 448 kts | 210° |
| 2026-04-29 20:12 | -8.39419 | -44.74471 | 35872 ft | 448 kts | 210° |
| 2026-04-29 20:12 | -8.44755 | -44.77705 | 35871 ft | 448 kts | 210° |
| 2026-04-29 20:13 | -8.50105 | -44.80949 | 35873 ft | 448 kts | 210° |
| 2026-04-29 20:13 | -8.55430 | -44.84180 | 35873 ft | 448 kts | 210° |
| 2026-04-29 20:14 | -8.60758 | -44.87412 | 35873 ft | 447 kts | 210° |
| 2026-04-29 20:14 | -8.66109 | -44.90659 | 35873 ft | 447 kts | 210° |
| 2026-04-29 20:15 | -8.71418 | -44.93882 | 35870 ft | 447 kts | 210° |
| 2026-04-29 20:15 | -8.76768 | -44.97130 | 35873 ft | 447 kts | 210° |
| 2026-04-29 20:16 | -8.82096 | -45.00368 | 35874 ft | 447 kts | 210° |
| 2026-04-29 20:16 | -8.87414 | -45.03600 | 35878 ft | 447 kts | 210° |
| 2026-04-29 20:17 | -8.92736 | -45.06836 | 35880 ft | 447 kts | 210° |
| 2026-04-29 20:17 | -8.98094 | -45.10094 | 35876 ft | 447 kts | 210° |
| 2026-04-29 20:18 | -9.03391 | -45.13317 | 35885 ft | 447 kts | 210° |
| 2026-04-29 20:18 | -9.08717 | -45.16559 | 35885 ft | 447 kts | 210° |
| 2026-04-29 20:19 | -9.14037 | -45.19798 | 35883 ft | 447 kts | 210° |
| 2026-04-29 20:19 | -9.19371 | -45.23047 | 35886 ft | 447 kts | 210° |
| 2026-04-29 20:20 | -9.24713 | -45.26301 | 35889 ft | 447 kts | 210° |
| 2026-04-29 20:20 | -9.30019 | -45.29535 | 35890 ft | 447 kts | 210° |
| 2026-04-29 20:21 | -9.35374 | -45.32800 | 35889 ft | 447 kts | 210° |
| 2026-04-29 20:21 | -9.40696 | -45.36045 | 35884 ft | 447 kts | 210° |
| 2026-04-29 20:22 | -9.46009 | -45.39287 | 35886 ft | 447 kts | 210° |
| 2026-04-29 20:22 | -9.51350 | -45.42546 | 35883 ft | 447 kts | 210° |
| 2026-04-29 20:23 | -9.56658 | -45.45787 | 35884 ft | 447 kts | 210° |
| 2026-04-29 20:23 | -9.61986 | -45.49042 | 35885 ft | 447 kts | 210° |
| 2026-04-29 20:24 | -9.67326 | -45.52304 | 35885 ft | 447 kts | 210° |
| 2026-04-29 20:24 | -9.72669 | -45.55570 | 35886 ft | 447 kts | 210° |
| 2026-04-29 20:25 | -9.77985 | -45.58821 | 35882 ft | 447 kts | 210° |
| 2026-04-29 20:25 | -9.83294 | -45.62068 | 35880 ft | 447 kts | 210° |
| 2026-04-29 20:26 | -9.88641 | -45.65341 | 35881 ft | 447 kts | 210° |
| 2026-04-29 20:26 | -9.93955 | -45.68593 | 35887 ft | 447 kts | 210° |
| 2026-04-29 20:27 | -9.98389 | -45.71309 | 35887 ft | 447 kts | 210° |
| 2026-04-29 20:27 | -10.04629 | -45.75131 | 35893 ft | 447 kts | 210° |
| 2026-04-29 20:28 | -10.09937 | -45.78385 | 35895 ft | 447 kts | 210° |
| 2026-04-29 20:28 | -10.15270 | -45.81654 | 35897 ft | 447 kts | 210° |
| 2026-04-29 20:29 | -10.20560 | -45.84899 | 35899 ft | 447 kts | 210° |
| 2026-04-29 20:29 | -10.25912 | -45.88183 | 35905 ft | 447 kts | 210° |
| 2026-04-29 20:30 | -10.31233 | -45.91449 | 35902 ft | 448 kts | 210° |
| 2026-04-29 20:30 | -10.36532 | -45.94704 | 35906 ft | 448 kts | 210° |
| 2026-04-29 20:31 | -10.41882 | -45.97991 | 35902 ft | 448 kts | 210° |
| 2026-04-29 20:31 | -10.47209 | -46.01265 | 35906 ft | 448 kts | 210° |
| 2026-04-29 20:32 | -10.52527 | -46.04535 | 35909 ft | 448 kts | 210° |
| 2026-04-29 20:32 | -10.57851 | -46.07809 | 35905 ft | 448 kts | 210° |
| 2026-04-29 20:33 | -10.63198 | -46.11099 | 35906 ft | 448 kts | 210° |
| 2026-04-29 20:33 | -10.68518 | -46.14374 | 35906 ft | 448 kts | 210° |
| 2026-04-29 20:34 | -10.73837 | -46.17650 | 35905 ft | 448 kts | 210° |
| 2026-04-29 20:34 | -10.79178 | -46.20940 | 35908 ft | 448 kts | 210° |
| 2026-04-29 20:35 | -10.84493 | -46.24216 | 35906 ft | 448 kts | 210° |
| 2026-04-29 20:35 | -10.89846 | -46.27518 | 35906 ft | 448 kts | 210° |
| 2026-04-29 20:36 | -10.95181 | -46.30809 | 35907 ft | 448 kts | 210° |
| 2026-04-29 20:36 | -11.00518 | -46.34102 | 35910 ft | 448 kts | 210° |
| 2026-04-29 20:37 | -11.05855 | -46.37397 | 35911 ft | 449 kts | 210° |
| 2026-04-29 20:37 | -11.11174 | -46.40683 | 35915 ft | 449 kts | 210° |
| 2026-04-29 20:38 | -11.16514 | -46.43983 | 35913 ft | 449 kts | 210° |
| 2026-04-29 20:38 | -11.21832 | -46.47270 | 35915 ft | 449 kts | 210° |
| 2026-04-29 20:39 | -11.27195 | -46.50587 | 35915 ft | 449 kts | 210° |
| 2026-04-29 20:39 | -11.32514 | -46.53879 | 35915 ft | 449 kts | 210° |
| 2026-04-29 20:40 | -11.37862 | -46.57190 | 35916 ft | 449 kts | 210° |
| 2026-04-29 20:40 | -11.43192 | -46.60490 | 35915 ft | 449 kts | 210° |
| 2026-04-29 20:41 | -11.48549 | -46.63809 | 35911 ft | 449 kts | 210° |
| 2026-04-29 20:41 | -11.53861 | -46.67102 | 35909 ft | 449 kts | 210° |
| 2026-04-29 20:42 | -11.59211 | -46.70420 | 35907 ft | 450 kts | 210° |
| 2026-04-29 20:42 | -11.64569 | -46.73744 | 35903 ft | 450 kts | 210° |
| 2026-04-29 20:43 | -11.69896 | -46.77051 | 35900 ft | 450 kts | 210° |
| 2026-04-29 20:43 | -11.75259 | -46.80381 | 35898 ft | 450 kts | 210° |
| 2026-04-29 20:44 | -11.80615 | -46.83709 | 35892 ft | 450 kts | 210° |
| 2026-04-29 20:44 | -11.85930 | -46.87013 | 35893 ft | 450 kts | 210° |
| 2026-04-29 20:45 | -11.91288 | -46.90345 | 35894 ft | 450 kts | 210° |
| 2026-04-29 20:45 | -11.96527 | -46.93874 | 35890 ft | 450 kts | 214° |
| 2026-04-29 20:46 | -12.01644 | -46.97505 | 35883 ft | 450 kts | 214° |
| 2026-04-29 20:46 | -12.06794 | -47.01155 | 35888 ft | 450 kts | 214° |
| 2026-04-29 20:47 | -12.11925 | -47.04787 | 35890 ft | 450 kts | 214° |
| 2026-04-29 20:47 | -12.17079 | -47.08436 | 35889 ft | 450 kts | 214° |
| 2026-04-29 20:48 | -12.22243 | -47.12093 | 35890 ft | 450 kts | 214° |
| 2026-04-29 20:48 | -12.27367 | -47.15723 | 35892 ft | 451 kts | 214° |
| 2026-04-29 20:49 | -12.32529 | -47.19382 | 35888 ft | 451 kts | 214° |
| 2026-04-29 20:49 | -12.37693 | -47.23044 | 35891 ft | 451 kts | 214° |
| 2026-04-29 20:50 | -12.42824 | -47.26685 | 35892 ft | 451 kts | 214° |
| 2026-04-29 20:50 | -12.47991 | -47.30352 | 35893 ft | 451 kts | 214° |
| 2026-04-29 20:51 | -12.53151 | -47.34017 | 35892 ft | 451 kts | 214° |
| 2026-04-29 20:51 | -12.58324 | -47.37693 | 35893 ft | 451 kts | 214° |
| 2026-04-29 20:52 | -12.63466 | -47.41348 | 35892 ft | 452 kts | 214° |
| 2026-04-29 20:52 | -12.68630 | -47.45021 | 35896 ft | 452 kts | 214° |
| 2026-04-29 20:53 | -12.73765 | -47.48675 | 35892 ft | 451 kts | 214° |
| 2026-04-29 20:53 | -12.78928 | -47.52351 | 35894 ft | 451 kts | 214° |
| 2026-04-29 20:54 | -12.86669 | -47.57866 | 35899 ft | 451 kts | 214° |
| 2026-04-29 20:55 | -12.91803 | -47.61526 | 35900 ft | 451 kts | 214° |
| 2026-04-29 20:55 | -12.96951 | -47.65198 | 35905 ft | 450 kts | 214° |
| 2026-04-29 20:56 | -13.02099 | -47.68872 | 35911 ft | 450 kts | 214° |
| 2026-04-29 20:56 | -13.07208 | -47.72520 | 35918 ft | 450 kts | 214° |
| 2026-04-29 20:57 | -13.12223 | -47.76102 | 35922 ft | 449 kts | 214° |
| 2026-04-29 20:57 | -13.17338 | -47.79757 | 35926 ft | 449 kts | 214° |
| 2026-04-29 20:58 | -13.22477 | -47.83432 | 35931 ft | 449 kts | 214° |
| 2026-04-29 20:58 | -13.27578 | -47.87082 | 35932 ft | 449 kts | 214° |
| 2026-04-29 20:59 | -13.32705 | -47.90752 | 35928 ft | 448 kts | 214° |
| 2026-04-29 20:59 | -13.36969 | -47.93806 | 35927 ft | 448 kts | 214° |
| 2026-04-29 21:00 | -13.42935 | -47.98081 | 35929 ft | 449 kts | 214° |
| 2026-04-29 21:00 | -13.47195 | -48.01135 | 35928 ft | 449 kts | 214° |
| 2026-04-29 21:01 | -13.52315 | -48.04808 | 35925 ft | 449 kts | 214° |
| 2026-04-29 21:01 | -13.57416 | -48.08468 | 35924 ft | 449 kts | 214° |
| 2026-04-29 21:02 | -13.62550 | -48.12155 | 35918 ft | 449 kts | 214° |
| 2026-04-29 21:02 | -13.67681 | -48.15841 | 35922 ft | 449 kts | 214° |
| 2026-04-29 21:03 | -13.72772 | -48.19501 | 35923 ft | 449 kts | 214° |
| 2026-04-29 21:03 | -13.77889 | -48.23181 | 35921 ft | 448 kts | 214° |
| 2026-04-29 21:04 | -13.83006 | -48.26863 | 35923 ft | 448 kts | 214° |
| 2026-04-29 21:04 | -13.88121 | -48.30546 | 35924 ft | 448 kts | 215° |
| 2026-04-29 21:05 | -13.93201 | -48.34206 | 35927 ft | 448 kts | 215° |
| 2026-04-29 21:05 | -13.98308 | -48.37887 | 35923 ft | 448 kts | 215° |
| 2026-04-29 21:06 | -14.03417 | -48.41572 | 35924 ft | 448 kts | 215° |
| 2026-04-29 21:06 | -14.08499 | -48.45239 | 35929 ft | 448 kts | 215° |
| 2026-04-29 21:07 | -14.13616 | -48.48925 | 35930 ft | 448 kts | 213° |
| 2026-04-29 21:07 | -14.16339 | -48.50479 | 35928 ft | 447 kts | 202° |
| 2026-04-29 21:07 | -14.19319 | -48.51374 | 35934 ft | 446 kts | 190° |
| 2026-04-29 21:08 | -14.25450 | -48.52255 | 35929 ft | 449 kts | 187° |
| 2026-04-29 21:08 | -14.31677 | -48.53051 | 35932 ft | 450 kts | 187° |
| 2026-04-29 21:09 | -14.37906 | -48.53864 | 35929 ft | 451 kts | 187° |
| 2026-04-29 21:09 | -14.41024 | -48.54274 | 35709 ft | 451 kts | 187° |
| 2026-04-29 21:09 | -14.44068 | -48.54675 | 35483 ft | 451 kts | 187° |
| 2026-04-29 21:09 | -14.47189 | -48.55087 | 35255 ft | 450 kts | 187° |
| 2026-04-29 21:10 | -14.50280 | -48.55496 | 34757 ft | 448 kts | 187° |
| 2026-04-29 21:10 | -14.53403 | -48.55909 | 34007 ft | 454 kts | 187° |
| 2026-04-29 21:10 | -14.56563 | -48.56327 | 33174 ft | 459 kts | 187° |
| 2026-04-29 21:10 | -14.59748 | -48.56749 | 32391 ft | 463 kts | 187° |
| 2026-04-29 21:11 | -14.62962 | -48.57175 | 31582 ft | 467 kts | 187° |
| 2026-04-29 21:11 | -14.66158 | -48.57598 | 30768 ft | 472 kts | 187° |
| 2026-04-29 21:11 | -14.69432 | -48.58032 | 29888 ft | 477 kts | 187° |
| 2026-04-29 21:11 | -14.72745 | -48.58471 | 28948 ft | 480 kts | 187° |
| 2026-04-29 21:12 | -14.76051 | -48.58910 | 28367 ft | 476 kts | 187° |
| 2026-04-29 21:12 | -14.79330 | -48.59345 | 27733 ft | 473 kts | 187° |
| 2026-04-29 21:12 | -14.82595 | -48.59778 | 27082 ft | 471 kts | 187° |
| 2026-04-29 21:12 | -14.85836 | -48.60208 | 26428 ft | 469 kts | 187° |
| 2026-04-29 21:13 | -14.89041 | -48.60634 | 25782 ft | 468 kts | 187° |
| 2026-04-29 21:13 | -14.92272 | -48.61063 | 25128 ft | 467 kts | 187° |
| 2026-04-29 21:13 | -14.95498 | -48.61492 | 24457 ft | 466 kts | 187° |
| 2026-04-29 21:13 | -14.98718 | -48.61917 | 23746 ft | 466 kts | 186° |
| 2026-04-29 21:14 | -15.01966 | -48.61970 | 22968 ft | 465 kts | 172° |
| 2026-04-29 21:14 | -15.05031 | -48.61138 | 22331 ft | 458 kts | 156° |
| 2026-04-29 21:14 | -15.07898 | -48.59749 | 21683 ft | 453 kts | 152° |
| 2026-04-29 21:14 | -15.10689 | -48.58262 | 21015 ft | 450 kts | 151° |
| 2026-04-29 21:15 | -15.13462 | -48.56781 | 20349 ft | 447 kts | 151° |
| 2026-04-29 21:15 | -15.16228 | -48.55318 | 19693 ft | 444 kts | 151° |
| 2026-04-29 21:15 | -15.18943 | -48.53893 | 19324 ft | 429 kts | 152° |
| 2026-04-29 21:15 | -15.21571 | -48.52521 | 18511 ft | 420 kts | 152° |
| 2026-04-29 21:16 | -15.24167 | -48.51167 | 17667 ft | 413 kts | 152° |
| 2026-04-29 21:16 | -15.26699 | -48.49850 | 17006 ft | 400 kts | 152° |
| 2026-04-29 21:16 | -15.29118 | -48.48592 | 16420 ft | 389 kts | 152° |
| 2026-04-29 21:16 | -15.31531 | -48.47337 | 15825 ft | 387 kts | 152° |
| 2026-04-29 21:17 | -15.33937 | -48.46084 | 15223 ft | 386 kts | 152° |
| 2026-04-29 21:17 | -15.36342 | -48.44833 | 14636 ft | 384 kts | 152° |
| 2026-04-29 21:17 | -15.38721 | -48.43596 | 14043 ft | 378 kts | 152° |
| 2026-04-29 21:17 | -15.41042 | -48.42389 | 13432 ft | 369 kts | 152° |
| 2026-04-29 21:18 | -15.43327 | -48.41200 | 12836 ft | 366 kts | 152° |
| 2026-04-29 21:18 | -15.45593 | -48.40020 | 12265 ft | 363 kts | 153° |
| 2026-04-29 21:18 | -15.47821 | -48.38861 | 11719 ft | 360 kts | 153° |
| 2026-04-29 21:18 | -15.50055 | -48.37697 | 11171 ft | 357 kts | 153° |
| 2026-04-29 21:19 | -15.52261 | -48.36547 | 10621 ft | 353 kts | 153° |
| 2026-04-29 21:19 | -15.54445 | -48.35410 | 10229 ft | 345 kts | 154° |
| 2026-04-29 21:19 | -15.56529 | -48.34323 | 10117 ft | 324 kts | 154° |
| 2026-04-29 21:19 | -15.58470 | -48.33312 | 10011 ft | 300 kts | 154° |
| 2026-04-29 21:20 | -15.60273 | -48.32379 | 9871 ft | 283 kts | 154° |
| 2026-04-29 21:20 | -15.62027 | -48.31476 | 9584 ft | 286 kts | 154° |
| 2026-04-29 21:20 | -15.63817 | -48.30557 | 9322 ft | 287 kts | 154° |
| 2026-04-29 21:20 | -15.65607 | -48.29637 | 9076 ft | 286 kts | 154° |
| 2026-04-29 21:21 | -15.67392 | -48.28718 | 8830 ft | 285 kts | 154° |
| 2026-04-29 21:21 | -15.69163 | -48.27807 | 8576 ft | 284 kts | 153° |
| 2026-04-29 21:21 | -15.70926 | -48.26900 | 8330 ft | 282 kts | 153° |
| 2026-04-29 21:21 | -15.72688 | -48.25993 | 8085 ft | 281 kts | 153° |
| 2026-04-29 21:22 | -15.74440 | -48.25089 | 7841 ft | 280 kts | 153° |
| 2026-04-29 21:22 | -15.76186 | -48.24189 | 7595 ft | 279 kts | 153° |
| 2026-04-29 21:22 | -15.77922 | -48.23279 | 7310 ft | 279 kts | 149° |
| 2026-04-29 21:22 | -15.79458 | -48.22081 | 7104 ft | 275 kts | 136° |
| 2026-04-29 21:23 | -15.80785 | -48.20682 | 6897 ft | 275 kts | 132° |
| 2026-04-29 21:23 | -15.82088 | -48.19224 | 6574 ft | 275 kts | 132° |
| 2026-04-29 21:23 | -15.83381 | -48.17764 | 6298 ft | 273 kts | 131° |
| 2026-04-29 21:23 | -15.84666 | -48.16318 | 6059 ft | 272 kts | 131° |
| 2026-04-29 21:24 | -15.85944 | -48.14880 | 5825 ft | 271 kts | 132° |
| 2026-04-29 21:24 | -15.87227 | -48.13438 | 5582 ft | 270 kts | 132° |
| 2026-04-29 21:24 | -15.88392 | -48.11953 | 5393 ft | 268 kts | 121° |
| 2026-04-29 21:24 | -15.88995 | -48.10178 | 5185 ft | 253 kts | 96° |
| 2026-04-29 21:25 | -15.89016 | -48.08430 | 5187 ft | 231 kts | 86° |
| 2026-04-29 21:25 | -15.88887 | -48.06842 | 5203 ft | 211 kts | 86° |
| 2026-04-29 21:25 | -15.88781 | -48.05359 | 5184 ft | 203 kts | 86° |
| 2026-04-29 21:25 | -15.88690 | -48.03891 | 5188 ft | 204 kts | 86° |
| 2026-04-29 21:26 | -15.88606 | -48.02465 | 5169 ft | 192 kts | 87° |
| 2026-04-29 21:26 | -15.88524 | -48.01133 | 4941 ft | 178 kts | 87° |
| 2026-04-29 21:26 | -15.88443 | -47.99881 | 4681 ft | 169 kts | 87° |
| 2026-04-29 21:26 | -15.88367 | -47.98695 | 4447 ft | 160 kts | 86° |
| 2026-04-29 21:27 | -15.88319 | -47.97947 | 4319 ft | 155 kts | 87° |
| 2026-04-29 21:27 | -15.88223 | -47.96462 | 4047 ft | 154 kts | 88° |
| 2026-04-29 21:27 | -15.88152 | -47.95346 | 3832 ft | 154 kts | 86° |
| 2026-04-29 21:27 | -15.88081 | -47.94234 | 3640 ft | 157 kts | 88° |
| 2026-04-29 21:28 | -15.88012 | -47.93159 | 3485 ft | 149 kts | 87° |
| 2026-04-29 21:28 | -15.87960 | -47.92274 | 3465 ft | 96 kts | 86° |
| 2026-04-29 21:28 | -15.87925 | -47.91766 | 3451 ft | 45 kts | 86° |
| 2026-04-29 21:28 | -15.87913 | -47.91582 | 3442 ft | 20 kts | 85° |
| 2026-04-29 21:29 | -15.87900 | -47.91430 | 3438 ft | 22 kts | 86° |
| 2026-04-29 21:29 | -15.87893 | -47.91267 | 3434 ft | 23 kts | 87° |
| 2026-04-29 21:29 | -15.87883 | -47.91100 | 3429 ft | 16 kts | 86° |
| 2026-04-29 21:29 | -15.87879 | -47.91028 | 3427 ft | 11 kts | 86° |
| 2026-04-29 21:30 | -15.87857 | -47.90954 | 3430 ft | 11 kts | 43° |
| 2026-04-29 21:30 | -15.87782 | -47.90941 | 3427 ft | 11 kts | 354° |
| 2026-04-29 21:30 | -15.87711 | -47.90964 | 3429 ft | 11 kts | 314° |
| 2026-04-29 21:30 | -15.87697 | -47.91031 | 3429 ft | 9 kts | 266° |
| 2026-04-29 21:31 | -15.87700 | -47.91094 | 3431 ft | 8 kts | 267° |
| 2026-04-29 21:31 | -15.87704 | -47.91148 | 3432 ft | 7 kts | 264° |
| 2026-04-29 21:31 | -15.87709 | -47.91204 | 3434 ft | 10 kts | 264° |
| 2026-04-29 21:31 | -15.87715 | -47.91293 | 3436 ft | 14 kts | 267° |
| 2026-04-29 21:32 | -15.87721 | -47.91411 | 3442 ft | 18 kts | 267° |
| 2026-04-29 21:32 | -15.87716 | -47.91527 | 3444 ft | 9 kts | 306° |
| 2026-04-29 21:32 | -15.87643 | -47.91556 | 3446 ft | 14 kts | 355° |
| 2026-04-29 21:32 | -15.87528 | -47.91563 | 3446 ft | 19 kts | 356° |
| 2026-04-29 21:33 | -15.87385 | -47.91573 | 3449 ft | 22 kts | 356° |
| 2026-04-29 21:33 | -15.87316 | -47.91609 | 3452 ft | 11 kts | 283° |
| 2026-04-29 21:33 | -15.87316 | -47.91698 | 3453 ft | 14 kts | 267° |
| 2026-04-29 21:33 | -15.87317 | -47.91771 | 3454 ft | 8 kts | 283° |
| 2026-04-29 21:34 | -15.87275 | -47.91798 | 3455 ft | 4 kts | 7° |
| 2026-04-29 21:34 | -15.87267 | -47.91796 | 3455 ft | 0 kts | 11° |